Time,TemperatureF,DewpointF,PressureIn,WindDirection,WindDirectionDegrees,WindSpeedMPH,WindSpeedGustMPH,Humidity,HourlyPrecipIn,Conditions,Clouds,dailyrainin,SoftwareType,DateUTC
2013-12-05 00:04:00,40.6,40.0,30.16,North,0,0.0,-999.0,97,0.00,,,-99.99,,2013-12-05 09:04:00,
2013-12-05 00:09:00,40.2,39.6,30.16,North,0,0.0,-999.0,97,0.00,,,-99.99,,2013-12-05 09:09:00,
2013-12-05 00:14:00,41.1,40.5,30.17,North,0,0.0,-999.0,97,0.00,,,-99.99,,2013-12-05 09:14:00,
2013-12-05 00:19:00,40.5,39.9,30.16,North,0,0.0,-999.0,97,0.00,,,-99.99,,2013-12-05 09:19:00,
2013-12-05 00:24:00,40.0,39.3,30.16,North,0,0.0,-999.0,97,0.00,,,-99.99,,2013-12-05 09:24:00,
2013-12-05 00:29:00,40.2,39.6,30.16,North,0,0.0,-999.0,97,0.00,,,-99.99,,2013-12-05 09:29:00,
2013-12-05 00:34:00,40.2,39.5,30.16,North,0,0.0,-999.0,97,0.00,,,-99.99,,2013-12-05 09:34:00,
2013-12-05 00:39:00,40.1,39.5,30.16,North,0,0.0,-999.0,97,0.00,,,-99.99,,2013-12-05 09:39:00,
2013-12-05 00:44:00,39.9,39.3,30.17,North,0,0.0,-999.0,97,0.00,,,-99.99,,2013-12-05 09:44:00,
2013-12-05 00:49:00,40.5,39.9,30.18,North,0,0.0,-999.0,97,0.00,,,-99.99,,2013-12-05 09:49:00,
2013-12-05 00:54:00,40.8,40.2,30.16,North,0,0.0,-999.0,97,0.00,,,-99.99,,2013-12-05 09:54:00,
2013-12-05 00:59:00,40.0,39.5,30.16,North,0,0.0,-999.0,97,0.00,,,-99.99,,2013-12-05 09:59:00,
2013-12-05 01:04:00,40.7,40.0,30.17,North,0,0.0,-999.0,97,0.00,,,-99.99,,2013-12-05 10:04:00,
2013-12-05 01:09:00,40.3,39.7,30.16,North,0,0.0,-999.0,97,0.00,,,-99.99,,2013-12-05 10:09:00,
2013-12-05 01:14:00,40.8,40.2,30.16,North,0,0.0,-999.0,97,0.00,,,-99.99,,2013-12-05 10:14:00,
2013-12-05 01:19:00,40.5,39.8,30.16,North,0,0.0,-999.0,97,0.00,,,-99.99,,2013-12-05 10:19:00,
2013-12-05 01:24:00,40.3,39.7,30.17,North,0,0.0,-999.0,97,0.00,,,-99.99,,2013-12-05 10:24:00,
2013-12-05 01:29:00,40.7,40.0,30.16,North,0,0.0,-999.0,97,0.00,,,-99.99,,2013-12-05 10:29:00,
2013-12-05 01:34:00,40.0,39.4,30.16,North,0,0.0,-999.0,97,0.00,,,-99.99,,2013-12-05 10:34:00,
2013-12-05 01:39:00,40.2,39.6,30.16,North,0,0.0,-999.0,97,0.00,,,-99.99,,2013-12-05 10:39:00,
2013-12-05 01:44:00,40.2,39.5,30.16,North,0,0.0,-999.0,97,0.00,,,-99.99,,2013-12-05 10:44:00,
2013-12-05 01:49:00,39.6,38.9,30.16,North,0,0.0,-999.0,97,0.00,,,-99.99,,2013-12-05 10:49:00,
2013-12-05 01:54:00,40.2,39.5,30.16,North,0,0.0,-999.0,97,0.00,,,-99.99,,2013-12-05 10:54:00,
2013-12-05 01:59:00,39.2,38.5,30.16,North,0,0.0,-999.0,97,0.00,,,-99.99,,2013-12-05 10:59:00,
2013-12-05 02:04:00,39.6,38.9,30.16,North,0,0.0,-999.0,97,0.00,,,-99.99,,2013-12-05 11:04:00,
2013-12-05 02:09:00,40.2,39.6,30.15,North,0,0.0,-999.0,97,0.00,,,-99.99,,2013-12-05 11:09:00,
2013-12-05 02:14:00,39.7,39.0,30.16,North,0,0.0,-999.0,97,0.00,,,-99.99,,2013-12-05 11:14:00,
2013-12-05 02:19:00,40.2,39.5,30.16,North,0,0.0,-999.0,97,0.00,,,-99.99,,2013-12-05 11:19:00,
2013-12-05 02:24:00,39.6,38.9,30.16,North,0,0.0,-999.0,97,0.00,,,-99.99,,2013-12-05 11:24:00,
2013-12-05 02:29:00,39.7,39.0,30.16,North,0,0.0,-999.0,97,0.00,,,-99.99,,2013-12-05 11:29:00,
2013-12-05 02:34:00,40.0,39.4,30.16,North,0,0.0,-999.0,97,0.00,,,-99.99,,2013-12-05 11:34:00,
2013-12-05 02:39:00,40.0,39.4,30.16,North,0,0.0,-999.0,97,0.00,,,-99.99,,2013-12-05 11:39:00,
2013-12-05 02:44:00,39.9,39.2,30.16,North,0,0.0,-999.0,97,0.00,,,-99.99,,2013-12-05 11:44:00,
2013-12-05 02:49:00,40.5,39.8,30.16,North,0,0.0,-999.0,97,0.00,,,-99.99,,2013-12-05 11:49:00,
2013-12-05 02:54:00,40.2,39.5,30.16,North,0,0.0,-999.0,97,0.00,,,-99.99,,2013-12-05 11:54:00,
2013-12-05 02:59:00,39.8,39.1,30.15,North,0,0.0,-999.0,97,0.00,,,-99.99,,2013-12-05 11:59:00,
2013-12-05 03:04:00,40.0,39.4,30.15,North,0,0.0,-999.0,97,0.00,,,-99.99,,2013-12-05 12:04:00,
2013-12-05 03:09:00,39.3,38.6,30.16,North,0,0.0,-999.0,97,0.00,,,-99.99,,2013-12-05 12:09:00,
2013-12-05 03:14:00,38.6,37.9,30.15,North,0,0.0,-999.0,97,0.00,,,-99.99,,2013-12-05 12:14:00,
2013-12-05 03:19:00,38.2,37.5,30.15,North,0,0.0,-999.0,97,0.00,,,-99.99,,2013-12-05 12:19:00,
2013-12-05 03:24:00,38.8,38.1,30.15,North,0,0.0,-999.0,97,0.00,,,-99.99,,2013-12-05 12:24:00,
2013-12-05 03:29:00,38.7,38.0,30.15,North,0,0.0,-999.0,97,0.00,,,-99.99,,2013-12-05 12:29:00,
2013-12-05 03:34:00,38.5,37.8,30.16,North,0,0.0,-999.0,97,0.00,,,-99.99,,2013-12-05 12:34:00,
2013-12-05 03:39:00,38.0,37.4,30.15,North,0,0.0,-999.0,97,0.00,,,-99.99,,2013-12-05 12:39:00,
2013-12-05 03:44:00,38.8,38.1,30.15,North,0,0.0,-999.0,97,0.00,,,-99.99,,2013-12-05 12:44:00,
2013-12-05 03:49:00,38.6,38.0,30.15,North,0,0.0,-999.0,97,0.00,,,-99.99,,2013-12-05 12:49:00,
2013-12-05 03:54:00,39.4,38.8,30.15,North,0,0.0,-999.0,97,0.00,,,-99.99,,2013-12-05 12:54:00,
2013-12-05 03:59:00,38.6,38.0,30.15,North,0,0.0,-999.0,97,0.00,,,-99.99,,2013-12-05 12:59:00,
2013-12-05 04:04:00,38.7,38.0,30.15,North,0,0.0,-999.0,97,0.00,,,-99.99,,2013-12-05 13:04:00,
2013-12-05 04:09:00,38.3,37.7,30.15,North,0,0.0,-999.0,97,0.00,,,-99.99,,2013-12-05 13:09:00,
2013-12-05 04:14:00,39.1,38.4,30.15,North,0,0.0,-999.0,97,0.00,,,-99.99,,2013-12-05 13:14:00,
2013-12-05 04:19:00,38.5,37.8,30.15,North,0,0.0,-999.0,97,0.00,,,-99.99,,2013-12-05 13:19:00,
2013-12-05 04:24:00,38.6,37.9,30.15,North,0,0.0,-999.0,97,0.00,,,-99.99,,2013-12-05 13:24:00,
2013-12-05 04:29:00,38.8,38.1,30.15,North,0,0.0,-999.0,97,0.00,,,-99.99,,2013-12-05 13:29:00,
2013-12-05 04:34:00,38.9,38.2,30.15,North,0,0.0,-999.0,97,0.00,,,-99.99,,2013-12-05 13:34:00,
2013-12-05 04:39:00,38.3,37.7,30.16,North,0,0.0,-999.0,97,0.00,,,-99.99,,2013-12-05 13:39:00,
2013-12-05 04:44:00,38.5,37.8,30.15,North,0,0.0,-999.0,97,0.00,,,-99.99,,2013-12-05 13:44:00,
2013-12-05 04:49:00,38.5,37.8,30.15,North,0,0.0,-999.0,97,0.00,,,-99.99,,2013-12-05 13:49:00,
2013-12-05 04:54:00,38.3,37.7,30.15,North,0,0.0,-999.0,97,0.00,,,-99.99,,2013-12-05 13:54:00,
2013-12-05 04:59:00,38.5,37.9,30.15,North,0,0.0,-999.0,97,0.00,,,-99.99,,2013-12-05 13:59:00,
2013-12-05 05:04:00,38.5,37.9,30.15,North,0,0.0,-999.0,97,0.00,,,-99.99,,2013-12-05 14:04:00,
2013-12-05 05:09:00,37.8,37.1,30.15,North,0,0.0,-999.0,97,0.00,,,-99.99,,2013-12-05 14:09:00,
2013-12-05 05:14:00,38.2,37.4,30.15,North,0,0.0,-999.0,97,0.00,,,-99.99,,2013-12-05 14:14:00,
2013-12-05 05:19:00,38.2,37.5,30.15,North,0,0.0,-999.0,97,0.00,,,-99.99,,2013-12-05 14:19:00,
2013-12-05 05:24:00,38.5,37.8,30.15,North,0,0.0,-999.0,97,0.00,,,-99.99,,2013-12-05 14:24:00,
2013-12-05 05:29:00,37.5,36.8,30.15,North,0,0.0,-999.0,97,0.00,,,-99.99,,2013-12-05 14:29:00,
2013-12-05 05:34:00,37.5,36.8,30.15,North,0,0.0,-999.0,97,0.00,,,-99.99,,2013-12-05 14:34:00,
2013-12-05 05:39:00,38.3,37.6,30.15,North,0,0.0,-999.0,97,0.00,,,-99.99,,2013-12-05 14:39:00,
2013-12-05 05:44:00,39.3,38.7,30.15,North,0,0.0,-999.0,97,0.00,,,-99.99,,2013-12-05 14:44:00,
2013-12-05 05:49:00,37.9,37.2,30.15,North,0,0.0,-999.0,97,0.00,,,-99.99,,2013-12-05 14:49:00,
2013-12-05 05:54:00,38.6,37.9,30.15,North,0,0.0,-999.0,97,0.00,,,-99.99,,2013-12-05 14:54:00,
2013-12-05 05:59:00,39.6,39.0,30.16,North,0,0.0,-999.0,97,0.00,,,-99.99,,2013-12-05 14:59:00,
2013-12-05 06:04:00,38.4,37.7,30.16,North,0,0.0,-999.0,97,0.00,,,-99.99,,2013-12-05 15:04:00,
2013-12-05 06:09:00,38.8,38.2,30.16,North,0,0.0,-999.0,97,0.00,,,-99.99,,2013-12-05 15:09:00,
2013-12-05 06:14:00,38.5,37.8,30.16,North,0,0.0,-999.0,97,0.00,,,-99.99,,2013-12-05 15:14:00,
2013-12-05 06:19:00,38.5,37.9,30.16,North,0,0.0,-999.0,97,0.00,,,-99.99,,2013-12-05 15:19:00,
2013-12-05 06:24:00,38.4,37.7,30.16,North,0,0.0,-999.0,97,0.00,,,-99.99,,2013-12-05 15:24:00,
2013-12-05 06:29:00,38.7,38.0,30.16,North,0,0.0,-999.0,97,0.00,,,-99.99,,2013-12-05 15:29:00,
2013-12-05 06:34:00,39.1,38.5,30.16,North,0,0.0,-999.0,97,0.00,,,-99.99,,2013-12-05 15:34:00,
2013-12-05 06:39:00,38.6,38.0,30.16,North,0,0.0,-999.0,97,0.00,,,-99.99,,2013-12-05 15:39:00,
2013-12-05 06:44:00,39.1,38.4,30.16,North,0,0.0,-999.0,97,0.00,,,-99.99,,2013-12-05 15:44:00,
2013-12-05 06:49:00,39.1,38.4,30.17,North,0,0.0,-999.0,97,0.00,,,-99.99,,2013-12-05 15:49:00,
2013-12-05 06:54:00,38.8,38.2,30.17,North,0,0.0,-999.0,97,0.00,,,-99.99,,2013-12-05 15:54:00,
2013-12-05 06:59:00,39.4,38.8,30.17,North,0,0.0,-999.0,97,0.00,,,-99.99,,2013-12-05 15:59:00,
2013-12-05 07:04:00,39.4,38.7,30.16,North,0,0.0,-999.0,97,0.00,,,-99.99,,2013-12-05 16:04:00,
2013-12-05 07:09:00,39.5,38.8,30.17,North,0,0.0,-999.0,97,0.00,,,-99.99,,2013-12-05 16:09:00,
2013-12-05 07:14:00,38.7,38.1,30.17,North,0,0.0,-999.0,97,0.00,,,-99.99,,2013-12-05 16:14:00,
2013-12-05 07:19:00,39.9,39.3,30.18,North,0,0.0,-999.0,97,0.00,,,-99.99,,2013-12-05 16:19:00,
2013-12-05 07:24:00,39.7,39.0,30.18,North,0,0.0,-999.0,97,0.00,,,-99.99,,2013-12-05 16:24:00,
2013-12-05 07:29:00,40.1,39.5,30.18,North,0,0.0,-999.0,97,0.00,,,-99.99,,2013-12-05 16:29:00,
2013-12-05 07:34:00,40.5,39.8,30.18,North,0,0.0,-999.0,97,0.00,,,-99.99,,2013-12-05 16:34:00,
2013-12-05 07:39:00,40.1,39.5,30.18,North,0,0.0,-999.0,97,0.00,,,-99.99,,2013-12-05 16:39:00,
2013-12-05 07:44:00,39.8,39.1,30.19,North,0,0.0,-999.0,97,0.00,,,-99.99,,2013-12-05 16:44:00,
2013-12-05 07:49:00,40.0,39.4,30.19,North,0,0.0,-999.0,97,0.00,,,-99.99,,2013-12-05 16:49:00,
2013-12-05 07:54:00,40.8,40.2,30.18,North,0,0.0,-999.0,97,0.00,,,-99.99,,2013-12-05 16:54:00,
2013-12-05 07:59:00,39.7,39.0,30.18,North,0,0.0,-999.0,97,0.00,,,-99.99,,2013-12-05 16:59:00,
2013-12-05 08:04:00,40.5,39.8,30.18,North,0,0.0,-999.0,97,0.00,,,-99.99,,2013-12-05 17:04:00,
2013-12-05 08:09:00,40.4,39.7,30.19,North,0,0.0,-999.0,97,0.00,,,-99.99,,2013-12-05 17:09:00,
2013-12-05 08:14:00,40.4,39.8,30.19,North,0,0.0,-999.0,97,0.00,,,-99.99,,2013-12-05 17:14:00,
2013-12-05 08:19:00,39.8,39.0,30.19,North,0,0.0,-999.0,97,0.00,,,-99.99,,2013-12-05 17:19:00,
2013-12-05 08:24:00,40.1,39.4,30.19,North,0,0.0,-999.0,97,0.00,,,-99.99,,2013-12-05 17:24:00,
2013-12-05 08:29:00,40.1,39.4,30.19,North,0,0.0,-999.0,97,0.00,,,-99.99,,2013-12-05 17:29:00,
2013-12-05 08:34:00,40.4,39.7,30.19,North,0,0.0,-999.0,97,0.00,,,-99.99,,2013-12-05 17:34:00,
2013-12-05 08:39:00,39.5,38.8,30.19,North,0,0.0,-999.0,97,0.00,,,-99.99,,2013-12-05 17:39:00,
2013-12-05 08:44:00,40.5,39.8,30.20,North,0,0.0,-999.0,97,0.00,,,-99.99,,2013-12-05 17:44:00,
2013-12-05 08:49:00,39.1,38.4,30.20,North,0,0.0,-999.0,97,0.00,,,-99.99,,2013-12-05 17:49:00,
2013-12-05 08:54:00,39.5,38.8,30.20,North,0,0.0,-999.0,97,0.00,,,-99.99,,2013-12-05 17:54:00,
2013-12-05 08:59:00,39.6,38.8,30.20,North,0,0.0,-999.0,97,0.00,,,-99.99,,2013-12-05 17:59:00,
2013-12-05 09:04:00,40.2,39.5,30.20,North,0,0.0,-999.0,97,0.00,,,-99.99,,2013-12-05 18:04:00,
2013-12-05 09:09:00,40.5,39.8,30.21,North,0,0.0,-999.0,97,0.00,,,-99.99,,2013-12-05 18:09:00,
2013-12-05 09:14:00,39.9,39.2,30.20,North,0,0.0,-999.0,97,0.00,,,-99.99,,2013-12-05 18:14:00,
2013-12-05 09:19:00,39.5,38.7,30.22,North,0,0.0,-999.0,97,0.00,,,-99.99,,2013-12-05 18:19:00,
2013-12-05 09:24:00,39.3,38.6,30.21,North,0,0.0,-999.0,97,0.00,,,-99.99,,2013-12-05 18:24:00,
2013-12-05 09:29:00,39.6,38.9,30.22,North,0,0.0,-999.0,97,0.00,,,-99.99,,2013-12-05 18:29:00,
2013-12-05 09:34:00,39.0,38.2,30.21,North,0,0.0,-999.0,97,0.00,,,-99.99,,2013-12-05 18:34:00,
2013-12-05 09:39:00,39.5,38.7,30.21,North,0,0.0,-999.0,97,0.00,,,-99.99,,2013-12-05 18:39:00,
2013-12-05 09:44:00,39.5,38.8,30.23,North,0,0.0,-999.0,97,0.00,,,-99.99,,2013-12-05 18:44:00,
2013-12-05 09:49:00,39.7,39.0,30.22,North,0,0.0,-999.0,97,0.00,,,-99.99,,2013-12-05 18:49:00,
2013-12-05 09:54:00,39.6,39.0,30.22,North,0,0.0,-999.0,97,0.00,,,-99.99,,2013-12-05 18:54:00,
2013-12-05 09:59:00,39.5,38.9,30.23,North,0,0.0,-999.0,97,0.00,,,-99.99,,2013-12-05 18:59:00,
2013-12-05 10:04:00,39.8,39.1,30.21,North,0,0.0,-999.0,97,0.00,,,-99.99,,2013-12-05 19:04:00,
2013-12-05 10:09:00,40.0,39.3,30.22,North,0,0.0,-999.0,97,0.00,,,-99.99,,2013-12-05 19:09:00,
2013-12-05 10:14:00,39.9,39.2,30.22,North,0,0.0,-999.0,97,0.00,,,-99.99,,2013-12-05 19:14:00,
2013-12-05 10:19:00,39.1,38.3,30.23,North,0,0.0,-999.0,97,0.00,,,-99.99,,2013-12-05 19:19:00,
2013-12-05 10:24:00,40.5,39.8,30.22,North,0,0.0,-999.0,97,0.00,,,-99.99,,2013-12-05 19:24:00,
2013-12-05 10:29:00,39.2,38.5,30.22,North,0,0.0,-999.0,97,0.00,,,-99.99,,2013-12-05 19:29:00,
2013-12-05 10:34:00,40.4,39.7,30.23,North,0,0.0,-999.0,97,0.00,,,-99.99,,2013-12-05 19:34:00,
2013-12-05 10:39:00,39.4,38.7,30.23,North,0,0.0,-999.0,97,0.00,,,-99.99,,2013-12-05 19:39:00,
2013-12-05 10:44:00,40.9,40.2,30.23,North,0,0.0,-999.0,97,0.00,,,-99.99,,2013-12-05 19:44:00,
2013-12-05 10:49:00,40.0,39.3,30.23,North,0,0.0,-999.0,97,0.00,,,-99.99,,2013-12-05 19:49:00,
2013-12-05 10:54:00,39.5,38.8,30.22,North,0,0.0,-999.0,97,0.00,,,-99.99,,2013-12-05 19:54:00,
2013-12-05 10:59:00,39.9,39.2,30.22,North,0,0.0,-999.0,97,0.00,,,-99.99,,2013-12-05 19:59:00,
2013-12-05 11:04:00,39.8,39.1,30.24,North,0,0.0,-999.0,97,0.00,,,-99.99,,2013-12-05 20:04:00,
2013-12-05 11:09:00,40.6,39.9,30.24,North,0,0.0,-999.0,97,0.00,,,-99.99,,2013-12-05 20:09:00,
2013-12-05 11:14:00,40.5,39.8,30.23,North,0,0.0,-999.0,97,0.00,,,-99.99,,2013-12-05 20:14:00,
2013-12-05 11:19:00,40.1,39.4,30.23,North,0,0.0,-999.0,97,0.00,,,-99.99,,2013-12-05 20:19:00,
2013-12-05 11:24:00,40.1,39.4,30.23,North,0,0.0,-999.0,97,0.00,,,-99.99,,2013-12-05 20:24:00,
2013-12-05 11:29:00,39.9,39.2,30.23,North,0,0.0,-999.0,97,0.00,,,-99.99,,2013-12-05 20:29:00,
2013-12-05 11:34:00,40.6,39.9,30.23,North,0,0.0,-999.0,97,0.00,,,-99.99,,2013-12-05 20:34:00,
2013-12-05 11:39:00,40.5,39.8,30.24,North,0,0.0,-999.0,97,0.00,,,-99.99,,2013-12-05 20:39:00,
2013-12-05 11:44:00,40.0,39.3,30.24,North,0,0.0,-999.0,97,0.00,,,-99.99,,2013-12-05 20:44:00,
2013-12-05 11:49:00,40.2,39.5,30.24,North,0,0.0,-999.0,97,0.00,,,-99.99,,2013-12-05 20:49:00,
2013-12-05 11:54:00,41.0,40.3,30.24,North,0,0.0,-999.0,97,0.00,,,-99.99,,2013-12-05 20:54:00,
2013-12-05 11:59:00,40.1,39.4,30.24,North,0,0.0,-999.0,97,0.00,,,-99.99,,2013-12-05 20:59:00,
2013-12-05 12:04:00,40.1,39.4,30.24,North,0,0.0,-999.0,97,0.00,,,-99.99,,2013-12-05 21:04:00,
2013-12-05 12:09:00,39.9,39.2,30.24,North,0,0.0,-999.0,97,0.00,,,-99.99,,2013-12-05 21:09:00,
2013-12-05 12:14:00,41.2,40.5,30.24,North,0,0.0,-999.0,97,0.00,,,-99.99,,2013-12-05 21:14:00,
2013-12-05 12:19:00,40.6,40.0,30.25,North,0,0.0,-999.0,97,0.00,,,-99.99,,2013-12-05 21:19:00,
2013-12-05 12:24:00,39.8,39.1,30.24,North,0,0.0,-999.0,97,0.00,,,-99.99,,2013-12-05 21:24:00,
2013-12-05 12:29:00,40.4,39.8,30.25,North,0,0.0,-999.0,97,0.00,,,-99.99,,2013-12-05 21:29:00,
2013-12-05 12:34:00,40.8,40.1,30.24,North,0,0.0,-999.0,97,0.00,,,-99.99,,2013-12-05 21:34:00,
2013-12-05 12:39:00,40.4,39.7,30.24,North,0,0.0,-999.0,97,0.00,,,-99.99,,2013-12-05 21:39:00,
2013-12-05 12:44:00,40.3,39.7,30.25,North,0,0.0,-999.0,97,0.00,,,-99.99,,2013-12-05 21:44:00,
2013-12-05 12:49:00,40.1,39.4,30.24,North,0,0.0,-999.0,97,0.00,,,-99.99,,2013-12-05 21:49:00,
2013-12-05 12:54:00,40.6,39.9,30.25,North,0,0.0,-999.0,97,0.00,,,-99.99,,2013-12-05 21:54:00,
2013-12-05 12:59:00,40.9,40.2,30.25,North,0,0.0,-999.0,97,0.00,,,-99.99,,2013-12-05 21:59:00,
2013-12-05 13:04:00,40.6,39.9,30.25,North,0,0.0,-999.0,97,0.00,,,-99.99,,2013-12-05 22:04:00,
2013-12-05 13:09:00,40.5,39.8,30.25,North,0,0.0,-999.0,97,0.00,,,-99.99,,2013-12-05 22:09:00,
2013-12-05 13:14:00,40.8,40.1,30.26,North,0,0.0,-999.0,97,0.00,,,-99.99,,2013-12-05 22:14:00,
2013-12-05 13:19:00,40.9,40.2,30.24,North,0,0.0,-999.0,97,0.00,,,-99.99,,2013-12-05 22:19:00,
2013-12-05 13:24:00,40.6,39.9,30.25,North,0,0.0,-999.0,97,0.00,,,-99.99,,2013-12-05 22:24:00,
2013-12-05 13:29:00,40.9,40.2,30.25,North,0,0.0,-999.0,97,0.00,,,-99.99,,2013-12-05 22:29:00,
2013-12-05 13:34:00,40.4,39.8,30.24,North,0,0.0,-999.0,97,0.00,,,-99.99,,2013-12-05 22:34:00,
2013-12-05 13:39:00,40.4,39.8,30.25,North,0,0.0,-999.0,97,0.00,,,-99.99,,2013-12-05 22:39:00,
2013-12-05 13:44:00,40.6,40.0,30.25,North,0,0.0,-999.0,97,0.00,,,-99.99,,2013-12-05 22:44:00,
2013-12-05 13:49:00,40.2,39.5,30.25,North,0,0.0,-999.0,97,0.00,,,-99.99,,2013-12-05 22:49:00,
2013-12-05 13:54:00,40.1,39.4,30.25,North,0,0.0,-999.0,97,0.00,,,-99.99,,2013-12-05 22:54:00,
2013-12-05 13:59:00,40.4,39.8,30.25,North,0,0.0,-999.0,97,0.00,,,-99.99,,2013-12-05 22:59:00,
2013-12-05 14:04:00,39.6,38.9,30.25,North,0,0.0,-999.0,97,0.00,,,-99.99,,2013-12-05 23:04:00,
2013-12-05 14:09:00,39.6,39.0,30.25,North,0,0.0,-999.0,97,0.00,,,-99.99,,2013-12-05 23:09:00,
2013-12-05 14:14:00,39.8,39.1,30.25,North,0,0.0,-999.0,97,0.00,,,-99.99,,2013-12-05 23:14:00,
2013-12-05 14:19:00,39.7,39.0,30.25,North,0,0.0,-999.0,97,0.00,,,-99.99,,2013-12-05 23:19:00,
2013-12-05 14:24:00,39.6,39.0,30.25,North,0,0.0,-999.0,97,0.00,,,-99.99,,2013-12-05 23:24:00,
2013-12-05 14:29:00,40.0,39.3,30.25,North,0,0.0,-999.0,97,0.00,,,-99.99,,2013-12-05 23:29:00,
2013-12-05 14:34:00,39.8,39.2,30.25,North,0,0.0,-999.0,97,0.00,,,-99.99,,2013-12-05 23:34:00,
2013-12-05 14:39:00,40.0,39.3,30.25,North,0,0.0,-999.0,97,0.00,,,-99.99,,2013-12-05 23:39:00,
2013-12-05 14:44:00,39.4,38.7,30.25,North,0,0.0,-999.0,97,0.00,,,-99.99,,2013-12-05 23:44:00,
2013-12-05 14:49:00,39.4,38.7,30.25,North,0,0.0,-999.0,97,0.00,,,-99.99,,2013-12-05 23:49:00,
2013-12-05 14:54:00,40.2,39.6,30.25,North,0,0.0,-999.0,97,0.00,,,-99.99,,2013-12-05 23:54:00,
2013-12-05 14:59:00,40.6,39.9,30.25,North,0,0.0,-999.0,97,0.00,,,-99.99,,2013-12-05 23:59:00,
2013-12-05 15:04:00,41.4,40.7,30.25,North,0,0.0,-999.0,97,0.00,,,-99.99,,2013-12-06 00:04:00,
2013-12-05 15:09:00,40.8,40.2,30.25,North,0,0.0,-999.0,97,0.00,,,-99.99,,2013-12-06 00:09:00,
2013-12-05 15:14:00,40.7,40.1,30.25,North,0,0.0,-999.0,97,0.00,,,-99.99,,2013-12-06 00:14:00,
2013-12-05 15:19:00,41.2,40.6,30.25,North,0,0.0,-999.0,97,0.00,,,-99.99,,2013-12-06 00:19:00,
2013-12-05 15:24:00,41.0,40.3,30.24,North,0,0.0,-999.0,97,0.00,,,-99.99,,2013-12-06 00:24:00,
2013-12-05 15:29:00,40.5,39.8,30.25,North,0,0.0,-999.0,97,0.00,,,-99.99,,2013-12-06 00:29:00,
2013-12-05 15:34:00,40.0,39.3,30.25,North,0,0.0,-999.0,97,0.00,,,-99.99,,2013-12-06 00:34:00,
2013-12-05 15:39:00,40.3,39.7,30.25,North,0,0.0,-999.0,97,0.00,,,-99.99,,2013-12-06 00:39:00,
2013-12-05 15:44:00,41.0,40.3,30.25,North,0,0.0,-999.0,97,0.00,,,-99.99,,2013-12-06 00:44:00,
2013-12-05 15:49:00,41.3,40.7,30.25,North,0,0.0,-999.0,97,0.00,,,-99.99,,2013-12-06 00:49:00,
2013-12-05 15:54:00,40.9,40.2,30.24,North,0,0.0,-999.0,97,0.00,,,-99.99,,2013-12-06 00:54:00,
2013-12-05 15:59:00,40.1,39.5,30.25,North,0,0.0,-999.0,97,0.00,,,-99.99,,2013-12-06 00:59:00,
2013-12-05 16:04:00,40.6,39.9,30.25,North,0,0.0,-999.0,97,0.00,,,-99.99,,2013-12-06 01:04:00,
2013-12-05 16:09:00,40.4,39.8,30.25,North,0,0.0,-999.0,97,0.00,,,-99.99,,2013-12-06 01:09:00,
2013-12-05 16:14:00,40.4,39.8,30.25,North,0,0.0,-999.0,97,0.00,,,-99.99,,2013-12-06 01:14:00,
2013-12-05 16:19:00,40.3,39.7,30.25,North,0,0.0,-999.0,97,0.00,,,-99.99,,2013-12-06 01:19:00,
2013-12-05 16:24:00,40.9,40.3,30.26,North,0,0.0,-999.0,97,0.00,,,-99.99,,2013-12-06 01:24:00,
2013-12-05 16:29:00,40.6,40.0,30.25,North,0,0.0,-999.0,97,0.00,,,-99.99,,2013-12-06 01:29:00,
2013-12-05 16:34:00,40.5,39.9,30.25,North,0,0.0,-999.0,97,0.00,,,-99.99,,2013-12-06 01:34:00,
2013-12-05 16:39:00,40.1,39.4,30.25,North,0,0.0,-999.0,97,0.00,,,-99.99,,2013-12-06 01:39:00,
2013-12-05 16:44:00,40.6,39.9,30.25,North,0,0.0,-999.0,97,0.00,,,-99.99,,2013-12-06 01:44:00,
2013-12-05 16:49:00,40.1,39.4,30.25,North,0,0.0,-999.0,97,0.00,,,-99.99,,2013-12-06 01:49:00,
2013-12-05 16:54:00,40.2,39.7,30.27,North,0,0.0,-999.0,97,0.00,,,-99.99,,2013-12-06 01:54:00,
2013-12-05 16:59:00,40.9,40.3,30.26,North,0,0.0,-999.0,97,0.00,,,-99.99,,2013-12-06 01:59:00,
2013-12-05 17:04:00,40.6,39.9,30.26,North,0,0.0,-999.0,97,0.00,,,-99.99,,2013-12-06 02:04:00,
2013-12-05 17:09:00,41.0,40.4,30.27,North,0,0.0,-999.0,97,0.00,,,-99.99,,2013-12-06 02:09:00,
2013-12-05 17:14:00,40.1,39.4,30.26,North,0,0.0,-999.0,97,0.00,,,-99.99,,2013-12-06 02:14:00,
2013-12-05 17:19:00,40.0,39.3,30.27,North,0,0.0,-999.0,97,0.00,,,-99.99,,2013-12-06 02:19:00,
2013-12-05 17:24:00,40.9,40.3,30.26,North,0,0.0,-999.0,97,0.00,,,-99.99,,2013-12-06 02:24:00,
2013-12-05 17:29:00,40.2,39.5,30.26,North,0,0.0,-999.0,97,0.00,,,-99.99,,2013-12-06 02:29:00,
2013-12-05 17:34:00,40.6,39.9,30.26,North,0,0.0,-999.0,97,0.00,,,-99.99,,2013-12-06 02:34:00,
2013-12-05 17:39:00,39.3,38.7,30.26,North,0,0.0,-999.0,97,0.00,,,-99.99,,2013-12-06 02:39:00,
2013-12-05 17:44:00,40.0,39.4,30.26,North,0,0.0,-999.0,97,0.00,,,-99.99,,2013-12-06 02:44:00,
2013-12-05 17:49:00,40.1,39.5,30.26,North,0,0.0,-999.0,97,0.00,,,-99.99,,2013-12-06 02:49:00,
2013-12-05 17:54:00,39.4,38.8,30.27,North,0,0.0,-999.0,97,0.00,,,-99.99,,2013-12-06 02:54:00,
2013-12-05 17:59:00,40.0,39.4,30.26,North,0,0.0,-999.0,97,0.00,,,-99.99,,2013-12-06 02:59:00,
2013-12-05 18:04:00,40.2,39.5,30.26,North,0,0.0,-999.0,97,0.00,,,-99.99,,2013-12-06 03:04:00,
2013-12-05 18:09:00,40.4,39.8,30.27,North,0,0.0,-999.0,97,0.00,,,-99.99,,2013-12-06 03:09:00,
2013-12-05 18:14:00,39.0,38.3,30.27,North,0,0.0,-999.0,97,0.00,,,-99.99,,2013-12-06 03:14:00,
2013-12-05 18:19:00,40.4,39.7,30.27,North,0,0.0,-999.0,97,0.00,,,-99.99,,2013-12-06 03:19:00,
2013-12-05 18:24:00,40.2,39.5,30.27,North,0,0.0,-999.0,97,0.00,,,-99.99,,2013-12-06 03:24:00,
2013-12-05 18:29:00,39.3,38.7,30.27,North,0,0.0,-999.0,97,0.00,,,-99.99,,2013-12-06 03:29:00,
2013-12-05 18:34:00,40.5,39.9,30.27,North,0,0.0,-999.0,97,0.00,,,-99.99,,2013-12-06 03:34:00,
2013-12-05 18:39:00,40.2,39.6,30.28,North,0,0.0,-999.0,97,0.00,,,-99.99,,2013-12-06 03:39:00,
2013-12-05 18:44:00,40.1,39.6,30.27,North,0,0.0,-999.0,97,0.00,,,-99.99,,2013-12-06 03:44:00,
2013-12-05 18:49:00,40.6,40.0,30.28,North,0,0.0,-999.0,97,0.00,,,-99.99,,2013-12-06 03:49:00,
2013-12-05 18:53:00,41.0,40.5,30.30,North,0,0.0,-999.0,97,0.00,,,-99.99,,2013-12-06 03:53:00,
2013-12-05 18:54:00,40.6,40.0,30.27,North,0,0.0,-999.0,97,0.00,,,-99.99,,2013-12-06 03:54:00,
2013-12-05 18:55:00,41.4,40.8,30.30,North,0,0.0,-999.0,97,0.00,,,-99.99,,2013-12-06 03:55:00,
2013-12-05 18:56:00,40.9,40.4,30.30,North,0,0.0,-999.0,97,0.00,,,-99.99,,2013-12-06 03:56:00,
2013-12-05 18:57:00,40.9,40.4,30.30,North,0,0.0,-999.0,97,0.00,,,-99.99,,2013-12-06 03:57:00,
2013-12-05 18:58:00,40.9,40.3,30.30,North,0,0.0,-999.0,97,0.00,,,-99.99,,2013-12-06 03:58:00,
2013-12-05 18:59:00,40.2,39.7,30.26,North,0,0.0,-999.0,97,0.00,,,-99.99,,2013-12-06 03:59:00,
2013-12-05 19:00:00,41.0,40.4,30.28,North,0,0.0,-999.0,97,0.00,,,-99.99,,2013-12-06 04:00:00,
2013-12-05 19:01:00,40.4,39.8,30.28,North,0,0.0,-999.0,97,0.00,,,-99.99,,2013-12-06 04:01:00,
2013-12-05 19:02:00,41.4,40.8,30.28,North,0,0.0,-999.0,97,0.00,,,-99.99,,2013-12-06 04:02:00,
2013-12-05 19:03:00,40.6,40.0,30.28,North,0,0.0,-999.0,97,0.00,,,-99.99,,2013-12-06 04:03:00,
2013-12-05 19:04:00,41.0,40.5,30.28,North,0,0.0,-999.0,97,0.00,,,-99.99,,2013-12-06 04:04:00,
2013-12-05 19:05:00,40.2,39.6,30.28,North,0,0.0,-999.0,97,0.00,,,-99.99,,2013-12-06 04:05:00,
2013-12-05 19:06:00,41.4,40.8,30.28,North,0,0.0,-999.0,97,0.00,,,-99.99,,2013-12-06 04:06:00,
2013-12-05 19:07:00,40.3,39.8,30.28,North,0,0.0,-999.0,97,0.00,,,-99.99,,2013-12-06 04:07:00,
2013-12-05 19:08:00,40.1,39.5,30.28,North,0,0.0,-999.0,97,0.00,,,-99.99,,2013-12-06 04:08:00,
2013-12-05 19:09:00,41.0,40.5,30.27,North,0,0.0,-999.0,97,0.00,,,-99.99,,2013-12-06 04:09:00,
2013-12-05 19:10:00,40.5,39.9,30.28,North,0,0.0,-999.0,97,0.00,,,-99.99,,2013-12-06 04:10:00,
2013-12-05 19:11:00,41.2,40.6,30.28,North,0,0.0,-999.0,97,0.00,,,-99.99,,2013-12-06 04:11:00,
2013-12-05 19:12:00,40.3,39.7,30.28,North,0,0.0,-999.0,97,0.00,,,-99.99,,2013-12-06 04:12:00,
2013-12-05 19:13:00,40.4,39.9,30.28,North,0,0.0,-999.0,97,0.00,,,-99.99,,2013-12-06 04:13:00,
2013-12-05 19:14:00,41.5,40.9,30.27,North,0,0.0,-999.0,97,0.00,,,-99.99,,2013-12-06 04:14:00,
2013-12-05 19:15:00,41.2,40.6,30.30,North,0,0.0,-999.0,97,0.00,,,-99.99,,2013-12-06 04:15:00,
2013-12-05 19:16:00,40.3,39.7,30.30,North,0,0.0,-999.0,97,0.00,,,-99.99,,2013-12-06 04:16:00,
2013-12-05 19:17:00,40.9,40.4,30.30,North,0,0.0,-999.0,97,0.00,,,-99.99,,2013-12-06 04:17:00,
2013-12-05 19:18:00,41.1,40.5,30.30,North,0,0.0,-999.0,97,0.00,,,-99.99,,2013-12-06 04:18:00,
2013-12-05 19:19:00,40.4,39.8,30.28,North,0,0.0,-999.0,97,0.00,,,-99.99,,2013-12-06 04:19:00,
2013-12-05 19:20:00,40.5,39.9,30.28,North,0,0.0,-999.0,97,0.00,,,-99.99,,2013-12-06 04:20:00,
2013-12-05 19:21:00,40.7,40.2,30.28,North,0,0.0,-999.0,97,0.00,,,-99.99,,2013-12-06 04:21:00,
2013-12-05 19:22:00,40.0,39.4,30.28,North,0,0.0,-999.0,97,0.00,,,-99.99,,2013-12-06 04:22:00,
2013-12-05 19:23:00,40.0,39.4,30.28,North,0,0.0,-999.0,97,0.00,,,-99.99,,2013-12-06 04:23:00,
2013-12-05 19:24:00,40.3,39.7,30.27,North,0,0.0,-999.0,97,0.00,,,-99.99,,2013-12-06 04:24:00,
2013-12-05 19:25:00,40.5,39.9,30.28,North,0,0.0,-999.0,97,0.00,,,-99.99,,2013-12-06 04:25:00,
2013-12-05 19:26:00,40.0,39.4,30.28,North,0,0.0,-999.0,97,0.00,,,-99.99,,2013-12-06 04:26:00,
2013-12-05 19:27:00,41.2,40.7,30.28,North,0,0.0,-999.0,97,0.00,,,-99.99,,2013-12-06 04:27:00,
2013-12-05 19:28:00,40.1,39.5,30.28,North,0,0.0,-999.0,97,0.00,,,-99.99,,2013-12-06 04:28:00,
2013-12-05 19:29:00,40.7,40.1,30.27,North,0,0.0,-999.0,97,0.00,,,-99.99,,2013-12-06 04:29:00,
2013-12-05 19:30:00,40.6,40.0,30.27,North,0,0.0,-999.0,97,0.00,,,-99.99,,2013-12-06 04:30:00,
2013-12-05 19:31:00,39.6,39.0,30.27,North,0,0.0,-999.0,97,0.00,,,-99.99,,2013-12-06 04:31:00,
2013-12-05 19:32:00,40.9,40.3,30.27,North,0,0.0,-999.0,97,0.00,,,-99.99,,2013-12-06 04:32:00,
2013-12-05 19:33:00,40.2,39.6,30.27,North,0,0.0,-999.0,97,0.00,,,-99.99,,2013-12-06 04:33:00,
2013-12-05 19:34:00,40.7,40.1,30.27,North,0,0.0,-999.0,97,0.00,,,-99.99,,2013-12-06 04:34:00,
2013-12-05 19:35:00,40.7,40.2,30.28,North,0,0.0,-999.0,97,0.00,,,-99.99,,2013-12-06 04:35:00,
2013-12-05 19:36:00,40.4,39.8,30.28,North,0,0.0,-999.0,97,0.00,,,-99.99,,2013-12-06 04:36:00,
2013-12-05 19:37:00,40.4,39.8,30.28,North,0,0.0,-999.0,97,0.00,,,-99.99,,2013-12-06 04:37:00,
2013-12-05 19:38:00,40.5,39.9,30.28,North,0,0.0,-999.0,97,0.00,,,-99.99,,2013-12-06 04:38:00,
2013-12-05 19:39:00,40.2,39.6,30.29,North,0,0.0,-999.0,97,0.00,,,-99.99,,2013-12-06 04:39:00,
2013-12-05 19:40:00,41.0,40.4,30.28,North,0,0.0,-999.0,97,0.00,,,-99.99,,2013-12-06 04:40:00,
2013-12-05 19:41:00,39.8,39.2,30.28,North,0,0.0,-999.0,97,0.00,,,-99.99,,2013-12-06 04:41:00,
2013-12-05 19:42:00,40.0,39.4,30.28,North,0,0.0,-999.0,97,0.00,,,-99.99,,2013-12-06 04:42:00,
2013-12-05 19:43:00,40.9,40.3,30.28,North,0,0.0,-999.0,97,0.00,,,-99.99,,2013-12-06 04:43:00,
2013-12-05 19:44:00,40.5,39.9,30.28,North,0,0.0,-999.0,97,0.00,,,-99.99,,2013-12-06 04:44:00,
2013-12-05 19:45:00,40.9,40.4,30.30,North,0,0.0,-999.0,97,0.00,,,-99.99,,2013-12-06 04:45:00,
2013-12-05 19:46:00,39.6,39.0,30.30,North,0,0.0,-999.0,97,0.00,,,-99.99,,2013-12-06 04:46:00,
2013-12-05 19:47:00,40.7,40.2,30.30,North,0,0.0,-999.0,97,0.00,,,-99.99,,2013-12-06 04:47:00,
2013-12-05 19:48:00,40.1,39.5,30.30,North,0,0.0,-999.0,97,0.00,,,-99.99,,2013-12-06 04:48:00,
2013-12-05 19:49:00,40.7,40.1,30.28,North,0,0.0,-999.0,97,0.00,,,-99.99,,2013-12-06 04:49:00,
2013-12-05 19:50:00,39.7,39.1,30.30,North,0,0.0,-999.0,97,0.00,,,-99.99,,2013-12-06 04:50:00,
2013-12-05 19:51:00,40.4,39.8,30.30,North,0,0.0,-999.0,97,0.00,,,-99.99,,2013-12-06 04:51:00,
2013-12-05 19:52:00,40.2,39.6,30.30,North,0,0.0,-999.0,97,0.00,,,-99.99,,2013-12-06 04:52:00,
2013-12-05 19:53:00,41.0,40.5,30.30,North,0,0.0,-999.0,97,0.00,,,-99.99,,2013-12-06 04:53:00,
2013-12-05 19:54:00,40.1,39.5,30.28,North,0,0.0,-999.0,97,0.00,,,-99.99,,2013-12-06 04:54:00,
2013-12-05 19:55:00,40.1,39.5,30.28,North,0,0.0,-999.0,97,0.00,,,-99.99,,2013-12-06 04:55:00,
2013-12-05 19:56:00,39.8,39.2,30.28,North,0,0.0,-999.0,97,0.00,,,-99.99,,2013-12-06 04:56:00,
2013-12-05 19:57:00,40.1,39.5,30.28,North,0,0.0,-999.0,97,0.00,,,-99.99,,2013-12-06 04:57:00,
2013-12-05 19:58:00,40.1,39.5,30.28,North,0,0.0,-999.0,97,0.00,,,-99.99,,2013-12-06 04:58:00,
2013-12-05 19:59:00,40.0,39.4,30.30,North,0,0.0,-999.0,97,0.00,,,-99.99,,2013-12-06 04:59:00,
2013-12-05 20:00:00,40.4,39.8,30.28,North,0,0.0,-999.0,97,0.00,,,-99.99,,2013-12-06 05:00:00,
2013-12-05 20:01:00,40.0,39.4,30.28,North,0,0.0,-999.0,97,0.00,,,-99.99,,2013-12-06 05:01:00,
2013-12-05 20:02:00,40.9,40.3,30.28,North,0,0.0,-999.0,97,0.00,,,-99.99,,2013-12-06 05:02:00,
2013-12-05 20:03:00,40.4,39.8,30.28,North,0,0.0,-999.0,97,0.00,,,-99.99,,2013-12-06 05:03:00,
2013-12-05 20:04:00,39.9,39.3,30.28,North,0,0.0,-999.0,97,0.00,,,-99.99,,2013-12-06 05:04:00,
2013-12-05 20:06:00,39.5,38.8,30.28,North,0,0.0,-999.0,97,0.00,,,-99.99,,2013-12-06 05:06:00,
2013-12-05 20:07:00,40.3,39.8,30.28,North,0,0.0,-999.0,97,0.00,,,-99.99,,2013-12-06 05:07:00,
2013-12-05 20:08:00,40.6,40.0,30.28,North,0,0.0,-999.0,97,0.00,,,-99.99,,2013-12-06 05:08:00,
2013-12-05 20:09:00,40.7,40.1,30.28,North,0,0.0,-999.0,97,0.00,,,-99.99,,2013-12-06 05:09:00,
2013-12-05 20:10:00,40.0,39.4,30.28,North,0,0.0,-999.0,97,0.00,,,-99.99,,2013-12-06 05:10:00,
2013-12-05 20:11:00,40.1,39.6,30.28,North,0,0.0,-999.0,97,0.00,,,-99.99,,2013-12-06 05:11:00,
2013-12-05 20:12:00,40.6,40.1,30.28,North,0,0.0,-999.0,97,0.00,,,-99.99,,2013-12-06 05:12:00,
2013-12-05 20:13:00,40.3,39.7,30.28,North,0,0.0,-999.0,97,0.00,,,-99.99,,2013-12-06 05:13:00,
2013-12-05 20:14:00,40.9,40.3,30.28,North,0,0.0,-999.0,97,0.00,,,-99.99,,2013-12-06 05:14:00,
2013-12-05 20:15:00,40.6,40.0,30.29,North,0,0.0,-999.0,97,0.00,,,-99.99,,2013-12-06 05:15:00,
2013-12-05 20:17:00,40.4,39.8,30.29,North,0,0.0,-999.0,97,0.00,,,-99.99,,2013-12-06 05:17:00,
2013-12-05 20:18:00,40.7,40.1,30.29,North,0,0.0,-999.0,97,0.00,,,-99.99,,2013-12-06 05:18:00,
2013-12-05 20:19:00,40.1,39.5,30.29,North,0,0.0,-999.0,97,0.00,,,-99.99,,2013-12-06 05:19:00,
2013-12-05 20:20:00,40.2,39.7,30.28,North,0,0.0,-999.0,97,0.00,,,-99.99,,2013-12-06 05:20:00,
2013-12-05 20:21:00,39.6,39.0,30.28,North,0,0.0,-999.0,97,0.00,,,-99.99,,2013-12-06 05:21:00,
2013-12-05 20:23:00,40.0,39.3,30.28,North,0,0.0,-999.0,97,0.00,,,-99.99,,2013-12-06 05:23:00,
2013-12-05 20:26:00,40.0,39.3,30.28,North,0,0.0,-999.0,97,0.00,,,-99.99,,2013-12-06 05:26:00,
2013-12-05 20:29:00,40.0,39.4,30.28,North,0,0.0,-999.0,97,0.00,,,-99.99,,2013-12-06 05:29:00,
2013-12-05 20:32:00,40.1,39.5,30.29,North,0,0.0,-999.0,97,0.00,,,-99.99,,2013-12-06 05:32:00,
2013-12-05 20:34:00,40.9,40.3,30.29,North,0,0.0,-999.0,97,0.00,,,-99.99,,2013-12-06 05:34:00,
2013-12-05 20:35:00,39.7,39.1,30.27,North,0,0.0,-999.0,97,0.00,,,-99.99,,2013-12-06 05:35:00,
2013-12-05 20:37:00,40.4,39.8,30.27,North,0,0.0,-999.0,97,0.00,,,-99.99,,2013-12-06 05:37:00,
2013-12-05 20:40:00,40.3,39.7,30.28,North,0,0.0,-999.0,97,0.00,,,-99.99,,2013-12-06 05:40:00,
2013-12-05 20:42:00,39.6,39.0,30.28,North,0,0.0,-999.0,97,0.00,,,-99.99,,2013-12-06 05:42:00,
2013-12-05 20:43:00,39.7,39.1,30.28,North,0,0.0,-999.0,97,0.00,,,-99.99,,2013-12-06 05:43:00,
2013-12-05 20:44:00,39.8,39.2,30.28,North,0,0.0,-999.0,97,0.00,,,-99.99,,2013-12-06 05:44:00,
2013-12-05 20:45:00,39.7,39.1,30.28,North,0,0.0,-999.0,97,0.00,,,-99.99,,2013-12-06 05:45:00,
2013-12-05 20:46:00,40.0,39.4,30.28,North,0,0.0,-999.0,97,0.00,,,-99.99,,2013-12-06 05:46:00,
2013-12-05 20:47:00,40.1,39.5,30.28,North,0,0.0,-999.0,97,0.00,,,-99.99,,2013-12-06 05:47:00,
2013-12-05 20:48:00,40.4,39.8,30.28,North,0,0.0,-999.0,97,0.00,,,-99.99,,2013-12-06 05:48:00,
2013-12-05 20:49:00,39.3,38.7,30.28,North,0,0.0,-999.0,97,0.00,,,-99.99,,2013-12-06 05:49:00,
2013-12-05 21:02:00,39.3,38.7,30.28,North,0,0.0,-999.0,97,0.00,,,-99.99,,2013-12-06 06:02:00,
2013-12-05 21:03:00,39.7,39.1,30.28,North,0,0.0,-999.0,97,0.00,,,-99.99,,2013-12-06 06:03:00,
2013-12-05 21:07:00,39.0,38.4,30.28,North,0,0.0,-999.0,97,0.00,,,-99.99,,2013-12-06 06:07:00,
2013-12-05 21:08:00,39.6,39.0,30.28,North,0,0.0,-999.0,97,0.00,,,-99.99,,2013-12-06 06:08:00,
2013-12-05 21:13:00,40.2,39.7,30.28,North,0,0.0,-999.0,97,0.00,,,-99.99,,2013-12-06 06:13:00,
2013-12-05 21:15:00,39.8,39.2,30.28,North,0,0.0,-999.0,97,0.00,,,-99.99,,2013-12-06 06:15:00,
2013-12-05 21:16:00,39.9,39.3,30.28,North,0,0.0,-999.0,97,0.00,,,-99.99,,2013-12-06 06:16:00,
2013-12-05 21:17:00,39.2,38.5,30.28,North,0,0.0,-999.0,97,0.00,,,-99.99,,2013-12-06 06:17:00,
2013-12-05 21:18:00,39.3,38.7,30.28,North,0,0.0,-999.0,97,0.00,,,-99.99,,2013-12-06 06:18:00,
2013-12-05 21:19:00,38.8,38.3,30.28,North,0,0.0,-999.0,97,0.00,,,-99.99,,2013-12-06 06:19:00,
2013-12-05 21:20:00,39.8,39.2,30.28,North,0,0.0,-999.0,97,0.00,,,-99.99,,2013-12-06 06:20:00,
2013-12-05 21:23:00,40.1,39.5,30.28,North,0,0.0,-999.0,97,0.00,,,-99.99,,2013-12-06 06:23:00,
2013-12-05 21:24:00,40.7,40.2,30.29,North,0,0.0,-999.0,97,0.00,,,-99.99,,2013-12-06 06:24:00,
2013-12-05 21:27:00,38.8,38.2,30.28,North,0,0.0,-999.0,97,0.00,,,-99.99,,2013-12-06 06:27:00,
2013-12-05 21:30:00,40.7,40.1,30.28,North,0,0.0,-999.0,97,0.00,,,-99.99,,2013-12-06 06:30:00,
2013-12-05 21:35:00,40.2,39.7,30.28,North,0,0.0,-999.0,97,0.00,,,-99.99,,2013-12-06 06:35:00,
2013-12-05 21:36:00,39.0,38.4,30.29,North,0,0.0,-999.0,97,0.00,,,-99.99,,2013-12-06 06:36:00,
2013-12-05 21:40:00,39.2,38.6,30.29,North,0,0.0,-999.0,97,0.00,,,-99.99,,2013-12-06 06:40:00,
2013-12-05 21:41:00,40.1,39.5,30.29,North,0,0.0,-999.0,97,0.00,,,-99.99,,2013-12-06 06:41:00,
2013-12-05 21:46:00,39.8,39.2,30.27,North,0,0.0,-999.0,97,0.00,,,-99.99,,2013-12-06 06:46:00,
2013-12-05 21:47:00,40.1,39.6,30.31,North,0,0.0,-999.0,97,0.00,,,-99.99,,2013-12-06 06:47:00,
2013-12-05 21:52:00,39.8,39.2,30.29,North,0,0.0,-999.0,97,0.00,,,-99.99,,2013-12-06 06:52:00,
2013-12-05 21:58:00,39.2,38.5,30.28,North,0,0.0,-999.0,97,0.00,,,-99.99,,2013-12-06 06:58:00,
2013-12-05 22:03:00,39.8,39.2,30.28,North,0,0.0,-999.0,97,0.00,,,-99.99,,2013-12-06 07:03:00,
2013-12-05 22:08:00,39.7,39.1,30.28,North,0,0.0,-999.0,97,0.00,,,-99.99,,2013-12-06 07:08:00,
2013-12-05 22:11:00,39.7,39.1,30.30,North,0,0.0,-999.0,97,0.00,,,-99.99,,2013-12-06 07:11:00,
2013-12-05 22:13:00,39.2,38.5,30.28,North,0,0.0,-999.0,97,0.00,,,-99.99,,2013-12-06 07:13:00,
2013-12-05 22:15:00,38.5,37.8,30.30,North,0,0.0,-999.0,97,0.00,,,-99.99,,2013-12-06 07:15:00,
2013-12-05 22:18:00,39.7,39.1,30.28,North,0,0.0,-999.0,97,0.00,,,-99.99,,2013-12-06 07:18:00,
2013-12-05 22:20:00,39.8,39.2,30.30,North,0,0.0,-999.0,97,0.00,,,-99.99,,2013-12-06 07:20:00,
2013-12-05 22:29:00,40.1,39.5,30.28,North,0,0.0,-999.0,97,0.00,,,-99.99,,2013-12-06 07:29:00,
2013-12-05 22:31:00,39.0,38.4,30.30,North,0,0.0,-999.0,97,0.00,,,-99.99,,2013-12-06 07:31:00,
2013-12-05 22:32:00,38.8,38.2,30.30,North,0,0.0,-999.0,97,0.00,,,-99.99,,2013-12-06 07:32:00,
2013-12-05 22:34:00,40.0,39.4,30.28,North,0,0.0,-999.0,97,0.00,,,-99.99,,2013-12-06 07:34:00,
2013-12-05 22:39:00,39.6,39.0,30.28,North,0,0.0,-999.0,97,0.00,,,-99.99,,2013-12-06 07:39:00,
2013-12-05 22:45:00,38.0,37.4,30.29,North,0,0.0,-999.0,97,0.00,,,-99.99,,2013-12-06 07:45:00,
2013-12-05 22:50:00,38.7,38.1,30.29,North,0,0.0,-999.0,97,0.00,,,-99.99,,2013-12-06 07:50:00,
2013-12-05 22:56:00,39.0,38.5,30.31,North,0,0.0,-999.0,97,0.00,,,-99.99,,2013-12-06 07:56:00,
2013-12-05 23:01:00,39.5,38.9,30.29,North,0,0.0,-999.0,97,0.00,,,-99.99,,2013-12-06 08:01:00,
2013-12-05 23:06:00,40.2,39.6,30.29,North,0,0.0,-999.0,97,0.00,,,-99.99,,2013-12-06 08:06:00,
2013-12-05 23:12:00,39.5,38.9,30.29,North,0,0.0,-999.0,97,0.00,,,-99.99,,2013-12-06 08:12:00,
2013-12-05 23:17:00,39.8,39.2,30.29,North,0,0.0,-999.0,97,0.00,,,-99.99,,2013-12-06 08:17:00,
2013-12-05 23:22:00,40.6,40.0,30.30,North,0,0.0,-999.0,97,0.00,,,-99.99,,2013-12-06 08:22:00,
2013-12-05 23:27:00,39.6,39.0,30.30,North,0,0.0,-999.0,97,0.00,,,-99.99,,2013-12-06 08:27:00,
2013-12-05 23:32:00,40.5,39.9,30.30,North,0,0.0,-999.0,97,0.00,,,-99.99,,2013-12-06 08:32:00,
2013-12-05 23:37:00,39.4,38.8,30.29,North,0,0.0,-999.0,97,0.00,,,-99.99,,2013-12-06 08:37:00,
2013-12-05 23:42:00,39.5,38.9,30.30,North,0,0.0,-999.0,97,0.00,,,-99.99,,2013-12-06 08:42:00,
2013-12-05 23:47:00,38.2,37.6,30.30,North,0,0.0,-999.0,97,0.00,,,-99.99,,2013-12-06 08:47:00,
2013-12-05 23:52:00,39.5,38.9,30.30,North,0,0.0,-999.0,97,0.00,,,-99.99,,2013-12-06 08:52:00,
2013-12-05 23:57:00,39.5,38.9,30.30,North,0,0.0,-999.0,97,0.00,,,-99.99,,2013-12-06 08:57:00,